createdAt,value
2024-03-16T00:02:00.450Z,9.93
2024-03-16T00:05:22.158Z,8.80
2024-03-16T00:08:43.832Z,5.60
2024-03-16T00:12:06.718Z,9.30
2024-03-16T00:15:28.362Z,8.93
2024-03-16T00:18:50.344Z,10.23
2024-03-16T00:22:12.212Z,9.20
2024-03-16T00:25:33.960Z,9.10
2024-03-16T00:28:55.761Z,6.70
2024-03-16T00:32:17.498Z,11.83
2024-03-16T00:35:39.348Z,11.50
2024-03-16T00:39:01.011Z,14.17
2024-03-16T00:42:22.920Z,9.17
2024-03-16T00:45:44.802Z,11.20
2024-03-16T00:49:06.776Z,15.87
2024-03-16T00:52:28.426Z,14.93
2024-03-16T00:55:50.170Z,9.63
2024-03-16T00:59:12.114Z,14.20
2024-03-16T01:02:33.888Z,11.03
2024-03-16T01:05:55.824Z,13.70
2024-03-16T01:09:17.454Z,13.93
2024-03-16T01:12:39.214Z,11.23
2024-03-16T01:16:02.697Z,16.17
2024-03-16T01:19:26.306Z,15.53
2024-03-16T01:22:47.760Z,13.30
2024-03-16T01:26:09.760Z,13.83
2024-03-16T01:29:31.508Z,14.20
2024-03-16T01:32:53.289Z,13.50
2024-03-16T01:36:15.710Z,14.47
2024-03-16T01:39:37.478Z,14.53
2024-03-16T01:42:59.639Z,12.60
2024-03-16T01:46:21.612Z,12.87
2024-03-16T01:49:43.145Z,12.87
2024-03-16T01:53:05.674Z,13.77
2024-03-16T01:56:27.402Z,13.80
2024-03-16T01:59:50.045Z,17.50
2024-03-16T02:03:11.582Z,12.93
2024-03-16T02:06:33.473Z,14.93
2024-03-16T02:09:55.182Z,15.17
2024-03-16T02:13:16.751Z,14.77
2024-03-16T02:16:39.031Z,18.27
2024-03-16T02:20:00.822Z,17.40
2024-03-16T02:23:23.199Z,17.73
2024-03-16T02:26:45.029Z,15.70
2024-03-16T02:30:10.947Z,20.07
2024-03-16T02:33:32.647Z,20.03
2024-03-16T02:36:54.743Z,16.17
2024-03-16T02:40:16.801Z,17.00
2024-03-16T02:43:38.731Z,17.70
2024-03-16T02:47:00.590Z,20.67
2024-03-16T02:50:22.773Z,18.03
2024-03-16T02:53:44.364Z,15.90
2024-03-16T02:57:06.258Z,15.77
2024-03-16T03:00:28.641Z,18.40
2024-03-16T03:03:50.457Z,15.33
2024-03-16T03:07:12.115Z,17.03
2024-03-16T03:10:34.584Z,14.40
2024-03-16T03:13:56.796Z,17.07
2024-03-16T03:17:18.326Z,14.37
2024-03-16T03:20:40.252Z,15.83
2024-03-16T03:24:04.189Z,18.43
2024-03-16T03:27:26.757Z,21.83
2024-03-16T03:30:50.334Z,19.70
2024-03-16T03:34:12.190Z,15.87
2024-03-16T03:37:34.327Z,15.53
2024-03-16T03:40:56.070Z,20.10
2024-03-16T03:44:25.749Z,23.53
2024-03-16T03:48:02.008Z,18.97
2024-03-16T03:51:24.213Z,15.23
2024-03-16T03:54:46.065Z,20.10
2024-03-16T03:58:08.112Z,15.13
2024-03-16T04:01:29.891Z,17.60
2024-03-16T04:04:51.740Z,18.27
2024-03-16T04:08:13.592Z,18.67
2024-03-16T04:11:35.412Z,21.30
2024-03-16T04:14:57.435Z,18.63
2024-03-16T04:18:19.287Z,21.90
2024-03-16T04:21:43.426Z,19.10
2024-03-16T04:25:05.182Z,16.10
2024-03-16T04:28:27.097Z,16.37
2024-03-16T04:31:49.105Z,15.60
2024-03-16T04:35:11.198Z,18.10
2024-03-16T04:38:32.740Z,17.17
2024-03-16T04:41:54.712Z,16.80
2024-03-16T04:45:16.524Z,22.43
2024-03-16T04:48:38.378Z,15.40
2024-03-16T04:52:00.676Z,15.60
2024-03-16T04:55:22.766Z,18.07
2024-03-16T04:58:44.354Z,19.67
2024-03-16T05:02:07.100Z,18.27
2024-03-16T05:05:28.894Z,21.03
2024-03-16T05:08:50.367Z,20.20
2024-03-16T05:12:12.121Z,18.17
2024-03-16T05:15:33.914Z,17.77
2024-03-16T05:18:55.755Z,19.90
2024-03-16T05:22:17.602Z,19.60
2024-03-16T05:25:39.286Z,17.33
2024-03-16T05:29:00.839Z,5.40
2024-03-16T05:32:24.266Z,4.00
2024-03-16T05:35:46.292Z,2.73
2024-03-16T05:39:09.179Z,2.17
2024-03-16T05:42:30.835Z,3.57
2024-03-16T05:45:53.072Z,2.73
2024-03-16T05:49:14.947Z,2.00
2024-03-16T05:52:38.835Z,1.50
2024-03-16T05:56:00.530Z,2.33
2024-03-16T05:59:22.294Z,2.73
2024-03-16T06:02:43.974Z,4.50
2024-03-16T06:06:06.341Z,3.17
2024-03-16T06:09:28.000Z,2.33
2024-03-16T06:12:51.141Z,8.50
2024-03-16T06:16:13.380Z,4.00
2024-03-16T06:19:34.918Z,4.10
2024-03-16T06:22:57.751Z,8.07
2024-03-16T06:26:20.272Z,5.40
2024-03-16T06:29:44.045Z,6.70
2024-03-16T06:33:10.185Z,6.17
2024-03-16T06:36:31.927Z,7.97
2024-03-16T06:39:53.824Z,5.10
2024-03-16T06:43:15.581Z,6.17
2024-03-16T06:46:37.744Z,4.30
2024-03-16T06:49:59.344Z,6.33
2024-03-16T06:53:20.879Z,3.53
2024-03-16T06:56:42.815Z,8.97
2024-03-16T07:00:05.477Z,10.53
2024-03-16T07:03:27.562Z,9.50
2024-03-16T07:06:49.105Z,8.70
2024-03-16T07:10:11.296Z,8.70
2024-03-16T07:13:33.376Z,11.20
2024-03-16T07:16:55.188Z,11.43
2024-03-16T07:20:17.054Z,9.33
2024-03-16T07:23:39.688Z,10.77
2024-03-16T07:27:01.280Z,12.37
2024-03-16T07:30:23.058Z,7.20
2024-03-16T07:33:44.887Z,11.00
2024-03-16T07:37:06.755Z,7.73
2024-03-16T07:40:29.068Z,12.17
2024-03-16T07:43:50.931Z,10.23
2024-03-16T07:47:12.696Z,18.37
2024-03-16T07:50:34.618Z,10.63
2024-03-16T07:53:56.418Z,15.40
2024-03-16T07:57:18.102Z,10.10
2024-03-16T08:00:39.660Z,9.53
2024-03-16T08:04:02.159Z,9.00
2024-03-16T08:07:24.630Z,7.47
2024-03-16T08:10:46.680Z,4.73
2024-03-16T08:14:09.571Z,8.23
2024-03-16T08:17:31.218Z,9.50
2024-03-16T08:20:52.908Z,6.87
2024-03-16T08:24:17.232Z,3.63
2024-03-16T08:27:38.898Z,6.00
2024-03-16T08:31:01.713Z,7.70
2024-03-16T08:34:23.470Z,6.93
2024-03-16T08:37:45.158Z,4.93
2024-03-16T08:41:07.165Z,9.97
2024-03-16T08:44:30.226Z,7.80
2024-03-16T08:47:52.310Z,8.30
2024-03-16T08:51:14.108Z,6.07
2024-03-16T08:54:36.154Z,8.47
2024-03-16T08:57:57.858Z,5.90
2024-03-16T09:01:19.640Z,6.27
2024-03-16T09:04:41.547Z,6.50
2024-03-16T09:08:03.495Z,7.77
2024-03-16T09:11:27.194Z,11.70
2024-03-16T09:14:49.242Z,9.10
2024-03-16T09:18:11.324Z,7.10
2024-03-16T09:21:33.333Z,6.30
2024-03-16T09:24:55.450Z,6.27
2024-03-16T09:28:17.284Z,5.67
2024-03-16T09:31:39.136Z,6.20
2024-03-16T09:35:01.136Z,6.43
2024-03-16T09:38:24.195Z,5.53
2024-03-16T09:41:47.794Z,2.97
